createdAt,value
2023-05-01T00:00:21.610Z,99.30
2023-05-01T00:02:48.365Z,99.60
2023-05-01T00:05:16.547Z,99.60
2023-05-01T00:07:43.206Z,99.40
2023-05-01T00:10:09.947Z,99.80
2023-05-01T00:12:36.602Z,99.70
2023-05-01T00:15:03.455Z,99.90
2023-05-01T00:17:31.030Z,99.90
2023-05-01T00:19:58.067Z,99.90
2023-05-01T00:22:24.902Z,99.90
2023-05-01T00:24:51.638Z,99.90
2023-05-01T00:27:18.278Z,99.90
2023-05-01T00:29:45.042Z,99.90
2023-05-01T00:32:11.809Z,99.90
2023-05-01T00:34:38.614Z,99.90
2023-05-01T00:37:05.299Z,99.90
2023-05-01T00:39:31.929Z,99.90
2023-05-01T00:41:58.605Z,99.90
2023-05-01T00:44:25.322Z,99.90
2023-05-01T00:46:52.111Z,99.90
2023-05-01T00:49:18.934Z,99.90
2023-05-01T00:51:49.320Z,99.70
2023-05-01T00:54:16.177Z,99.90
2023-05-01T00:56:43.261Z,99.90
2023-05-01T00:59:10.487Z,99.90
2023-05-01T01:01:37.274Z,99.90
2023-05-01T01:04:04.221Z,99.90
2023-05-01T01:06:34.348Z,99.90
2023-05-01T01:09:13.673Z,99.90
2023-05-01T01:11:59.156Z,99.90
2023-05-01T01:14:33.041Z,99.90
2023-05-01T01:17:19.950Z,99.90
2023-05-01T01:20:08.481Z,99.90
2023-05-01T01:22:39.510Z,99.90
2023-05-01T01:25:26.129Z,99.90
2023-05-01T01:27:52.660Z,99.90
2023-05-01T01:30:58.250Z,99.90
2023-05-01T01:33:49.593Z,99.90
2023-05-01T01:36:21.418Z,99.90
2023-05-01T01:39:02.267Z,99.90
2023-05-01T01:41:34.412Z,99.90
2023-05-01T01:44:09.443Z,99.90
2023-05-01T01:46:39.944Z,99.90
2023-05-01T01:49:11.708Z,99.90
2023-05-01T01:51:41.714Z,99.90
2023-05-01T01:54:11.858Z,99.90
2023-05-01T01:56:41.962Z,99.90
2023-05-01T01:59:11.007Z,99.90
2023-05-01T02:01:40.896Z,99.90
2023-05-01T02:04:08.770Z,99.90
2023-05-01T02:06:37.887Z,99.90
2023-05-01T02:09:07.495Z,99.90
2023-05-01T02:11:36.202Z,99.90
2023-05-01T02:14:04.026Z,99.90
2023-05-01T02:16:33.414Z,99.90
2023-05-01T02:19:01.530Z,99.90
2023-05-01T02:21:31.044Z,99.90
2023-05-01T02:24:01.475Z,99.90
2023-05-01T02:26:29.624Z,99.90
2023-05-01T02:28:56.576Z,99.90
2023-05-01T02:31:23.374Z,99.90
2023-05-01T02:33:50.173Z,99.90
2023-05-01T02:36:16.894Z,99.90
2023-05-01T02:38:44.065Z,99.90
2023-05-01T02:41:11.883Z,99.90
2023-05-01T02:43:41.437Z,99.90
2023-05-01T02:46:10.432Z,99.90
2023-05-01T02:48:38.606Z,99.90
2023-05-01T02:51:05.843Z,99.90
2023-05-01T02:53:33.454Z,99.90
2023-05-01T02:56:00.372Z,99.90
2023-05-01T02:58:30.530Z,99.90
2023-05-01T03:00:57.229Z,99.90
2023-05-01T03:03:23.947Z,99.90
2023-05-01T03:05:51.728Z,99.90
2023-05-01T03:08:18.358Z,99.90
2023-05-01T03:10:44.991Z,99.90
2023-05-01T03:13:12.122Z,99.90
2023-05-01T03:15:39.540Z,99.90
2023-05-01T03:18:06.574Z,99.90
2023-05-01T03:20:34.003Z,99.90
2023-05-01T03:23:01.067Z,99.90
2023-05-01T03:25:27.739Z,99.90
2023-05-01T03:27:55.252Z,99.90
2023-05-01T03:30:22.114Z,99.90
2023-05-01T03:32:48.782Z,99.90
2023-05-01T03:35:15.694Z,99.90
2023-05-01T03:37:42.404Z,99.90
2023-05-01T03:40:09.426Z,99.90
2023-05-01T03:42:36.060Z,99.90
2023-05-01T03:45:02.747Z,99.90
2023-05-01T03:47:29.750Z,99.90
2023-05-01T03:49:56.821Z,99.90
2023-05-01T03:52:23.680Z,99.90
2023-05-01T03:54:50.401Z,99.90
2023-05-01T03:57:17.074Z,99.90
2023-05-01T03:59:43.800Z,99.90
2023-05-01T04:02:10.612Z,99.90
2023-05-01T04:04:37.492Z,99.90
2023-05-01T04:07:04.890Z,99.90
2023-05-01T04:09:31.619Z,99.90
2023-05-01T04:11:58.493Z,99.90
2023-05-01T04:14:25.168Z,99.90
2023-05-01T04:16:52.193Z,99.90
2023-05-01T04:19:18.919Z,99.90
2023-05-01T04:21:46.242Z,99.90
2023-05-01T04:24:13.289Z,99.90
2023-05-01T04:26:40.027Z,99.90
2023-05-01T04:29:06.745Z,99.90
2023-05-01T04:31:34.823Z,99.90
2023-05-01T04:34:01.653Z,99.90
2023-05-01T04:36:29.579Z,99.90
2023-05-01T04:38:56.283Z,99.90
2023-05-01T04:41:23.334Z,99.90
2023-05-01T04:43:50.053Z,99.90
2023-05-01T04:46:16.748Z,99.90
2023-05-01T04:48:43.462Z,99.90
2023-05-01T04:51:10.097Z,99.90
2023-05-01T04:53:36.749Z,99.90
2023-05-01T04:56:03.924Z,99.90
2023-05-01T04:58:30.568Z,99.90
2023-05-01T05:00:57.244Z,99.90
2023-05-01T05:03:24.075Z,99.90
2023-05-01T05:05:50.862Z,99.90
2023-05-01T05:08:17.611Z,99.90
2023-05-01T05:10:44.284Z,99.90
2023-05-01T05:13:10.961Z,99.90
2023-05-01T05:15:37.636Z,99.90
2023-05-01T05:18:04.408Z,99.90
2023-05-01T05:20:31.086Z,99.90
2023-05-01T05:22:57.832Z,99.90
2023-05-01T05:25:24.714Z,99.90
2023-05-01T05:27:51.379Z,99.90
2023-05-01T05:30:18.347Z,99.90
2023-05-01T05:32:47.276Z,99.90
2023-05-01T05:35:14.025Z,99.90
2023-05-01T05:37:40.703Z,99.90
2023-05-01T05:40:08.111Z,99.90
2023-05-01T05:42:34.743Z,99.90
2023-05-01T05:45:01.468Z,99.90
2023-05-01T05:47:28.169Z,99.90
2023-05-01T05:49:55.785Z,99.90
2023-05-01T05:52:22.697Z,99.90
2023-05-01T05:54:49.420Z,99.90
2023-05-01T05:57:16.188Z,99.90
2023-05-01T05:59:44.144Z,99.90
2023-05-01T06:02:10.821Z,99.90
2023-05-01T06:04:37.505Z,99.90
2023-05-01T06:07:06.179Z,99.90
2023-05-01T06:09:33.413Z,99.90
2023-05-01T06:12:00.145Z,99.90
2023-05-01T06:14:27.317Z,99.90
2023-05-01T06:16:54.075Z,99.90
2023-05-01T06:19:20.808Z,99.90
2023-05-01T06:21:47.430Z,99.90
2023-05-01T06:24:14.074Z,99.90
2023-05-01T06:26:40.762Z,99.90
2023-05-01T06:29:07.399Z,99.30
2023-05-01T06:31:34.136Z,99.30
2023-05-01T06:34:00.818Z,99.00
2023-05-01T06:36:27.788Z,98.80
2023-05-01T06:38:54.501Z,98.80
2023-05-01T06:41:22.081Z,98.80
2023-05-01T06:43:48.738Z,99.00
2023-05-01T06:46:15.504Z,98.80
2023-05-01T06:48:42.197Z,98.20
2023-05-01T06:51:08.919Z,98.70
2023-05-01T06:53:36.770Z,98.60
2023-05-01T06:56:03.587Z,97.30
2023-05-01T06:58:30.285Z,98.50
2023-05-01T07:00:57.063Z,98.70
2023-05-01T07:03:24.031Z,97.40
2023-05-01T07:05:50.674Z,97.50
2023-05-01T07:08:17.332Z,97.90
2023-05-01T07:10:44.032Z,97.50
2023-05-01T07:13:10.808Z,96.30
2023-05-01T07:15:37.825Z,95.80
2023-05-01T07:18:07.687Z,93.50
2023-05-01T07:20:37.112Z,92.20
2023-05-01T07:23:06.601Z,92.60
2023-05-01T07:25:34.058Z,90.50
2023-05-01T07:28:02.738Z,90.50
2023-05-01T07:30:30.409Z,90.50
2023-05-01T07:32:57.913Z,90.40
2023-05-01T07:35:24.820Z,88.60
2023-05-01T07:37:51.929Z,89.20
2023-05-01T07:40:18.876Z,88.80
2023-05-01T07:42:45.498Z,87.30
2023-05-01T07:45:12.187Z,85.80
2023-05-01T07:47:38.950Z,85.30
2023-05-01T07:50:11.224Z,86.10
2023-05-01T07:52:38.524Z,86.30
2023-05-01T07:55:05.645Z,88.20
2023-05-01T07:57:35.039Z,87.00
2023-05-01T08:00:01.793Z,87.10
2023-05-01T08:02:28.602Z,89.00
2023-05-01T08:04:55.572Z,88.90
2023-05-01T08:07:22.371Z,88.30
2023-05-01T08:09:49.067Z,87.90
2023-05-01T08:12:15.872Z,87.80
2023-05-01T08:14:42.690Z,86.20
2023-05-01T08:17:09.442Z,84.60
2023-05-01T08:19:36.118Z,80.80
2023-05-01T08:22:02.797Z,80.40
2023-05-01T08:24:29.807Z,80.20
2023-05-01T08:26:56.877Z,79.60
2023-05-01T08:29:23.553Z,79.50
2023-05-01T08:31:50.204Z,79.00
2023-05-01T08:34:17.382Z,77.10
2023-05-01T08:36:44.084Z,73.70
2023-05-01T08:39:10.744Z,74.90
2023-05-01T08:41:38.145Z,76.00
2023-05-01T08:44:08.764Z,77.60
2023-05-01T08:46:46.541Z,75.80
2023-05-01T08:49:15.730Z,75.30
2023-05-01T08:51:50.009Z,75.10
2023-05-01T08:54:19.738Z,75.20
2023-05-01T08:56:53.204Z,76.00
2023-05-01T08:59:21.733Z,75.50
2023-05-01T09:01:49.422Z,74.80
2023-05-01T09:04:17.361Z,72.00
2023-05-01T09:06:45.050Z,72.10
2023-05-01T09:09:11.931Z,71.00
2023-05-01T09:11:38.932Z,71.10
2023-05-01T09:14:05.804Z,72.60
2023-05-01T09:16:32.897Z,71.30
2023-05-01T09:18:59.673Z,71.10
2023-05-01T09:21:29.131Z,71.00
2023-05-01T09:23:56.144Z,73.10
2023-05-01T09:26:22.780Z,71.50
2023-05-01T09:28:51.666Z,71.80
2023-05-01T09:31:22.867Z,72.10
2023-05-01T09:33:54.849Z,70.70
2023-05-01T09:36:23.548Z,70.50
2023-05-01T09:38:50.494Z,70.50
2023-05-01T09:41:17.311Z,70.90
2023-05-01T09:43:58.736Z,69.40
2023-05-01T09:46:27.072Z,68.00
2023-05-01T09:49:01.588Z,69.40
2023-05-01T09:51:33.136Z,69.30
2023-05-01T09:54:02.465Z,67.90
2023-05-01T09:56:31.649Z,68.50
2023-05-01T09:59:14.091Z,68.40
2023-05-01T10:01:50.222Z,69.00
2023-05-01T10:04:17.665Z,66.70
2023-05-01T10:06:44.458Z,67.30
2023-05-01T10:09:17.665Z,66.40
2023-05-01T10:11:57.151Z,66.40
2023-05-01T10:14:25.150Z,65.90
2023-05-01T10:16:53.231Z,66.10
2023-05-01T10:19:21.083Z,66.30
2023-05-01T10:21:47.912Z,65.80
2023-05-01T10:24:16.708Z,65.70
2023-05-01T10:26:44.696Z,66.70
2023-05-01T10:29:12.791Z,67.60
2023-05-01T10:31:42.131Z,68.20
2023-05-01T10:34:10.468Z,68.30
2023-05-01T10:36:50.892Z,68.90
2023-05-01T10:39:32.180Z,68.70
2023-05-01T10:41:58.824Z,68.60
2023-05-01T10:44:27.029Z,68.30
2023-05-01T10:46:54.740Z,68.10
2023-05-01T10:49:22.064Z,68.30
2023-05-01T10:52:04.167Z,68.90
2023-05-01T10:54:32.440Z,69.70
2023-05-01T10:57:03.324Z,69.50
2023-05-01T11:00:04.040Z,69.00
2023-05-01T11:02:30.870Z,69.30
2023-05-01T11:04:57.895Z,70.40
2023-05-01T11:07:25.297Z,70.60
2023-05-01T11:10:00.120Z,71.50
2023-05-01T11:12:48.418Z,69.70
2023-05-01T11:15:34.129Z,69.40
2023-05-01T11:18:03.494Z,72.10
2023-05-01T11:20:36.365Z,72.10
2023-05-01T11:23:03.071Z,71.70
2023-05-01T11:25:30.988Z,72.90
2023-05-01T11:28:00.229Z,72.50
2023-05-01T11:30:36.095Z,74.30
2023-05-01T11:33:03.808Z,73.80
2023-05-01T11:35:33.206Z,74.50
2023-05-01T11:37:59.949Z,74.30
2023-05-01T11:40:31.686Z,77.20
2023-05-01T11:43:07.451Z,76.70
2023-05-01T11:45:35.317Z,79.30
2023-05-01T11:48:04.369Z,78.00
2023-05-01T11:50:37.073Z,80.90
2023-05-01T11:53:11.701Z,82.50
2023-05-01T11:55:38.767Z,86.10
2023-05-01T11:58:05.406Z,83.10
2023-05-01T12:00:39.713Z,86.30
2023-05-01T12:03:11.977Z,89.10
2023-05-01T12:05:42.188Z,91.20
2023-05-01T12:08:23.374Z,90.70
2023-05-01T12:10:56.119Z,92.00
2023-05-01T12:13:23.670Z,93.40
2023-05-01T12:15:53.226Z,93.60
2023-05-01T12:18:21.516Z,95.60
2023-05-01T12:20:56.331Z,98.30
2023-05-01T12:23:35.044Z,99.90
2023-05-01T12:26:03.349Z,99.90
2023-05-01T12:28:31.956Z,99.90
2023-05-01T12:31:05.416Z,99.90
2023-05-01T12:33:32.392Z,99.90
2023-05-01T12:36:11.533Z,99.90
2023-05-01T12:38:38.438Z,99.90
2023-05-01T12:41:08.756Z,99.90
2023-05-01T12:43:37.276Z,99.90
2023-05-01T12:46:06.113Z,99.90
2023-05-01T12:48:39.241Z,99.90
2023-05-01T12:51:06.354Z,99.90
2023-05-01T12:53:33.579Z,99.90
2023-05-01T12:56:01.223Z,99.90
2023-05-01T12:58:36.808Z,99.90
2023-05-01T13:01:04.160Z,99.90
2023-05-01T13:03:32.101Z,99.90
2023-05-01T13:06:03.423Z,99.90
2023-05-01T13:08:49.142Z,99.90
2023-05-01T13:11:17.441Z,99.90
2023-05-01T13:13:45.450Z,99.90
2023-05-01T13:16:16.585Z,99.90
2023-05-01T13:18:51.476Z,99.90
2023-05-01T13:21:22.391Z,99.90
2023-05-01T13:24:07.287Z,99.90
2023-05-01T13:26:36.172Z,99.90
2023-05-01T13:29:05.715Z,99.90
2023-05-01T13:31:32.654Z,99.90
2023-05-01T13:34:00.027Z,99.90
2023-05-01T13:36:33.106Z,99.90
2023-05-01T13:38:59.823Z,99.90
2023-05-01T13:41:27.474Z,99.90
2023-05-01T13:43:56.165Z,99.90
2023-05-01T13:46:24.945Z,99.90
2023-05-01T13:48:52.000Z,99.90
2023-05-01T13:51:22.919Z,99.90
2023-05-01T13:53:50.271Z,99.90
2023-05-01T13:56:17.053Z,99.90
2023-05-01T13:58:43.729Z,99.90
2023-05-01T14:01:20.518Z,99.90
2023-05-01T14:03:48.447Z,99.90
2023-05-01T14:06:16.961Z,99.90
2023-05-01T14:08:44.792Z,99.90
2023-05-01T14:11:12.414Z,99.90
2023-05-01T14:13:44.101Z,99.90
2023-05-01T14:16:20.878Z,99.90
2023-05-01T14:18:48.394Z,99.90
2023-05-01T14:21:16.930Z,99.90
2023-05-01T14:23:44.179Z,99.90
2023-05-01T14:26:16.868Z,99.90
2023-05-01T14:28:44.986Z,99.90
2023-05-01T14:31:30.011Z,99.90
2023-05-01T14:33:57.841Z,99.90
2023-05-01T14:36:24.907Z,99.90
2023-05-01T14:38:51.946Z,99.90
2023-05-01T14:41:19.503Z,99.90
2023-05-01T14:43:46.917Z,99.90
2023-05-01T14:46:15.942Z,99.90
2023-05-01T14:48:42.781Z,99.90
2023-05-01T14:51:12.279Z,99.90
2023-05-01T14:53:42.440Z,99.90
2023-05-01T14:56:09.380Z,99.90
2023-05-01T14:58:36.311Z,99.90
2023-05-01T15:01:03.344Z,99.90
2023-05-01T15:03:30.657Z,99.90
2023-05-01T15:05:57.484Z,99.90
2023-05-01T15:08:24.441Z,99.90
2023-05-01T15:10:54.137Z,99.90
2023-05-01T15:13:21.268Z,99.90
2023-05-01T15:15:48.145Z,99.90
2023-05-01T15:18:15.149Z,99.90
2023-05-01T15:20:41.978Z,99.90
2023-05-01T15:23:09.264Z,99.90
2023-05-01T15:25:36.452Z,99.90
2023-05-01T15:28:03.421Z,99.90
2023-05-01T15:30:30.177Z,99.90
2023-05-01T15:32:57.370Z,99.90
2023-05-01T15:35:24.373Z,99.90
2023-05-01T15:37:51.337Z,99.90
2023-05-01T15:40:18.112Z,99.90
2023-05-01T15:42:47.879Z,99.90
2023-05-01T15:45:14.695Z,99.90
2023-05-01T15:47:41.420Z,99.90
2023-05-01T15:50:13.430Z,99.90
2023-05-01T15:52:40.223Z,99.90
2023-05-01T15:55:07.221Z,99.90
2023-05-01T15:57:35.105Z,99.90
2023-05-01T16:00:02.156Z,99.90
2023-05-01T16:02:32.673Z,99.90
2023-05-01T16:05:00.268Z,99.90
2023-05-01T16:07:29.252Z,99.90
2023-05-01T16:09:57.286Z,99.90
2023-05-01T16:12:24.598Z,99.90
2023-05-01T16:14:51.473Z,99.90
2023-05-01T16:17:19.591Z,99.90
2023-05-01T16:19:46.856Z,99.90
2023-05-01T16:22:17.154Z,99.90
2023-05-01T16:24:44.351Z,99.90
2023-05-01T16:27:14.138Z,99.90
2023-05-01T16:29:40.872Z,99.90
2023-05-01T16:32:11.225Z,99.90
2023-05-01T16:34:40.209Z,99.90
2023-05-01T16:37:07.411Z,99.90
2023-05-01T16:39:39.389Z,99.90
2023-05-01T16:42:06.225Z,99.90
2023-05-01T16:44:36.285Z,99.90
2023-05-01T16:47:03.659Z,99.90
2023-05-01T16:49:30.741Z,99.90
2023-05-01T16:51:58.627Z,99.90
2023-05-01T16:54:35.199Z,99.90
2023-05-01T16:57:05.746Z,99.90
2023-05-01T16:59:32.825Z,99.90
2023-05-01T17:01:59.574Z,99.90
2023-05-01T17:04:26.577Z,99.90
2023-05-01T17:06:55.939Z,99.90
2023-05-01T17:09:22.897Z,99.90
2023-05-01T17:11:49.631Z,99.90
2023-05-01T17:14:16.340Z,99.90
2023-05-01T17:16:43.058Z,99.90
2023-05-01T17:19:09.917Z,99.90
2023-05-01T17:21:36.625Z,99.90
2023-05-01T17:24:04.477Z,99.90
2023-05-01T17:26:31.451Z,99.90
2023-05-01T17:28:58.149Z,99.90
2023-05-01T17:31:24.876Z,99.90
2023-05-01T17:33:51.611Z,99.90
2023-05-01T17:36:18.351Z,99.90
2023-05-01T17:38:45.031Z,99.90
2023-05-01T17:41:11.776Z,99.90
2023-05-01T17:43:38.486Z,99.90
2023-05-01T17:46:06.054Z,99.90
2023-05-01T17:48:33.205Z,99.90
2023-05-01T17:50:59.959Z,99.90
2023-05-01T17:53:27.013Z,99.90
2023-05-01T17:55:53.707Z,99.90
2023-05-01T17:58:21.231Z,99.90
2023-05-01T18:00:47.915Z,99.90
2023-05-01T18:03:14.812Z,99.90
2023-05-01T18:05:41.623Z,99.90
2023-05-01T18:08:08.274Z,99.90
2023-05-01T18:10:34.925Z,99.90
2023-05-01T18:13:01.768Z,99.90
2023-05-01T18:15:28.537Z,99.90
2023-05-01T18:17:55.293Z,99.90
2023-05-01T18:20:22.413Z,99.90
2023-05-01T18:22:49.996Z,99.90
2023-05-01T18:25:17.140Z,99.90
2023-05-01T18:27:45.112Z,99.90
2023-05-01T18:30:12.146Z,99.90
2023-05-01T18:32:47.576Z,99.90
2023-05-01T18:35:15.958Z,99.90
2023-05-01T18:37:43.789Z,99.90
2023-05-01T18:40:10.877Z,99.90
2023-05-01T18:42:37.896Z,99.90
2023-05-01T18:45:04.974Z,99.90
2023-05-01T18:47:32.695Z,99.90
2023-05-01T18:50:00.038Z,99.90
2023-05-01T18:52:30.231Z,99.90
2023-05-01T18:54:56.905Z,99.90
2023-05-01T18:57:23.819Z,99.90
2023-05-01T18:59:50.553Z,99.90
2023-05-01T19:02:17.202Z,99.90
2023-05-01T19:04:56.904Z,99.90
2023-05-01T19:07:26.102Z,99.90
2023-05-01T19:09:52.916Z,99.90
2023-05-01T19:12:19.633Z,99.90
2023-05-01T19:14:46.361Z,99.90
2023-05-01T19:17:13.146Z,99.90
2023-05-01T19:19:39.996Z,99.90
2023-05-01T19:22:07.210Z,99.90
2023-05-01T19:24:33.962Z,99.90
2023-05-01T19:27:01.579Z,99.90
2023-05-01T19:29:28.380Z,99.90
2023-05-01T19:32:00.097Z,99.90
2023-05-01T19:34:27.419Z,99.90
2023-05-01T19:36:56.751Z,99.90
2023-05-01T19:39:23.787Z,99.90
2023-05-01T19:41:50.580Z,99.90
2023-05-01T19:44:17.329Z,99.90
2023-05-01T19:46:44.422Z,99.90
2023-05-01T19:49:11.075Z,99.90
2023-05-01T19:51:37.754Z,99.90
2023-05-01T19:54:04.485Z,99.90
2023-05-01T19:56:31.480Z,99.90
2023-05-01T19:58:58.160Z,99.90
2023-05-01T20:01:25.014Z,99.90
2023-05-01T20:03:51.733Z,99.90
2023-05-01T20:06:18.465Z,99.90
2023-05-01T20:08:45.222Z,99.90
2023-05-01T20:11:11.897Z,99.90
2023-05-01T20:13:38.588Z,99.90
2023-05-01T20:16:05.614Z,99.90
2023-05-01T20:18:32.606Z,99.90
2023-05-01T20:20:59.276Z,99.90
2023-05-01T20:23:26.188Z,99.90
2023-05-01T20:25:53.343Z,99.90
2023-05-01T20:28:20.736Z,99.90
2023-05-01T20:30:48.596Z,99.90
2023-05-01T20:33:16.856Z,99.90
2023-05-01T20:35:44.951Z,99.90
2023-05-01T20:38:11.639Z,99.90
2023-05-01T20:40:40.209Z,99.90
2023-05-01T20:43:07.852Z,99.90
2023-05-01T20:45:34.731Z,99.90
2023-05-01T20:48:01.850Z,99.90
2023-05-01T20:50:29.202Z,99.90
2023-05-01T20:52:56.206Z,99.90
2023-05-01T20:55:23.753Z,99.90
2023-05-01T20:57:50.597Z,99.90
2023-05-01T21:00:17.355Z,99.90
2023-05-01T21:02:44.286Z,99.90
2023-05-01T21:05:14.307Z,99.90
2023-05-01T21:07:41.089Z,99.90
2023-05-01T21:10:10.082Z,99.90
2023-05-01T21:12:37.342Z,99.90
2023-05-01T21:15:04.795Z,99.90
2023-05-01T21:17:34.521Z,99.90
2023-05-01T21:20:01.555Z,99.90
2023-05-01T21:22:28.475Z,99.90
2023-05-01T21:24:59.534Z,99.90
2023-05-01T21:27:27.379Z,99.90
2023-05-01T21:29:59.011Z,99.90
2023-05-01T21:32:36.545Z,99.90
2023-05-01T21:35:03.713Z,99.90
2023-05-01T21:37:30.635Z,99.90
2023-05-01T21:40:01.522Z,99.90
2023-05-01T21:42:39.122Z,99.90
2023-05-01T21:45:07.653Z,99.90
2023-05-01T21:47:38.946Z,99.90
2023-05-01T21:50:07.481Z,99.90
2023-05-01T21:52:35.020Z,99.90
2023-05-01T21:55:07.494Z,99.90
2023-05-01T21:57:38.588Z,99.90
2023-05-01T22:00:09.290Z,99.90
2023-05-01T22:02:40.505Z,99.90
2023-05-01T22:05:08.814Z,99.90
2023-05-01T22:07:41.629Z,99.90
2023-05-01T22:10:10.191Z,99.90
2023-05-01T22:12:37.240Z,99.90
2023-05-01T22:15:04.224Z,99.90
2023-05-01T22:17:31.048Z,99.90
2023-05-01T22:19:57.857Z,99.90
2023-05-01T22:22:24.702Z,99.90
2023-05-01T22:24:52.147Z,99.90
2023-05-01T22:27:18.827Z,99.90
2023-05-01T22:29:45.688Z,99.90
2023-05-01T22:32:12.413Z,99.90
2023-05-01T22:34:39.136Z,99.90
2023-05-01T22:37:06.655Z,99.90
2023-05-01T22:39:36.742Z,99.90
2023-05-01T22:42:03.987Z,99.90
2023-05-01T22:44:31.172Z,99.90
2023-05-01T22:46:59.402Z,99.90
2023-05-01T22:49:28.495Z,99.90
2023-05-01T22:51:55.824Z,99.90
2023-05-01T22:54:22.836Z,99.90
2023-05-01T22:56:49.921Z,99.90
2023-05-01T22:59:17.070Z,99.90
2023-05-01T23:01:44.469Z,99.90
2023-05-01T23:04:12.024Z,99.90
2023-05-01T23:06:39.776Z,99.90
2023-05-01T23:09:06.827Z,99.90
2023-05-01T23:11:34.719Z,99.90
2023-05-01T23:14:01.608Z,99.90
2023-05-01T23:16:41.343Z,99.90
2023-05-01T23:19:20.152Z,99.90
2023-05-01T23:21:47.333Z,99.90
2023-05-01T23:24:18.882Z,99.90
2023-05-01T23:26:45.708Z,99.90
2023-05-01T23:29:18.209Z,99.90
2023-05-01T23:31:47.066Z,99.90
2023-05-01T23:34:17.487Z,99.90
2023-05-01T23:36:46.064Z,99.90
2023-05-01T23:39:13.084Z,99.90
2023-05-01T23:41:39.846Z,99.90
2023-05-01T23:44:06.719Z,99.90
2023-05-01T23:46:33.691Z,99.90
2023-05-01T23:49:00.552Z,99.90
2023-05-01T23:51:27.787Z,99.90
2023-05-01T23:53:54.550Z,99.90
2023-05-01T23:56:21.261Z,99.90
2023-05-01T23:58:47.932Z,99.90
